首页
METAR-TAF:

METAR-TAF

机场 :

霍尼亞拉國際機場

霍尼亚拉, 瓜达尔卡纳尔岛, 所罗门群岛

纬度: 09-25S, 经度: 160-03E, 海拔: 8米

当前天气观测

该预报发布于19分钟前的02:00 UTC
风速4节,风向北转东北
温度 30°C
湿度 66%
气压 1009 hPa
能见度10公里或以上
少量云层高于2000英尺
多云层高于30000英尺

METAR: AGGH 210200Z 02004KT 9999 HZ FEW020 BKN300 30/23 Q1009

时间: 13:19 (02:19 UTC)

预报

该预报发布于3小时和9分钟前的23:10 UTC
预报有效从21日的 00点(UTC)到 21日的 24点(UTC)
风速12节,风向东转东北
能見度: 1011
散云层高于1800英尺
多云层高于10000英尺
多云层高于1600英尺
(小) 阵雨, 毛毛雨, 阵雨

TAF: AGGH 202310Z 2100/2124 07012KT 9999 -SHDZ SCT018 BKN100 INTER 2100/2106 5000 SHRA BKN016 T 28 29 28 27 Q 1012 1010 1009 1011

超过4000个机场的气象观测和天气预报(METAR&TAF报告)。

可查询的气象台以黄色和红色小点在地图上表示。

将鼠标移到小点上方,可查看气象台名称。

然后点击查看天气观测和预报。

如需切换地图:点击带黑十字的绿色按钮放大地图;点击带横线的绿色按钮缩小地图;或者点击绿色箭头查看邻近地区的地图。


METAR-TAF: